Flight Track Log - Related Links

Times and Time Zones

All times are in EDT time to prevent confusion due to time zone crossing. See the WEW1540 flight status page for this flight to view local times or setup timezone preferences in your user account.

Time Position Orientation Groundspeed Altitude Reporting Facility
EDT Latitude Longitude Course Direction KTS MPH feet Rate Location/Type
08:07PM 50.3333 -107.4000 77° East 140 161 9,000  Level Winnipeg Center
08:08PM 50.3333 -107.3167 90° East 170 196 9,000  Level Winnipeg Center
08:09PM 50.3419 -107.2580 77° East  Level FlightAware Approximate
08:09PM 50.3333 -107.2333 90° East 190 219 9,000  Level Winnipeg Center
08:10PM 50.3521 -107.1870 77° East  Level FlightAware Approximate
08:10PM 50.3500 -107.1667 69° East 190 219 9,000  Level Winnipeg Center
08:11PM 50.3624 -107.1160 77° East  Level FlightAware Approximate
08:11PM 50.3500 -107.0833 90° East 190 219 9,000  Level Winnipeg Center
08:12PM 50.3726 -107.0450 77° East  Level FlightAware Approximate
08:12PM 50.3667 -106.9833 75° East 190 219 9,000  Level Winnipeg Center
08:13PM 50.3827 -106.9739 77° East  Level FlightAware Approximate
08:13PM 50.3833 -106.9000 73° East 190 219 9,000  Level Winnipeg Center
08:14PM 50.4000 -106.8333 69° East 200 230 9,000  Level Winnipeg Center
08:15PM 50.4167 -106.7500 73° East 190 219 9,000  Level Winnipeg Center
08:16PM 50.4333 -106.6500 75° East 200 230 9,000  Level Winnipeg Center
08:17PM 50.4500 -106.5833 69° East 200 230 9,000  Level Winnipeg Center
08:18PM 50.4500 -106.5000 90° East 200 230 9,000  Level Winnipeg Center
08:19PM 50.4667 -106.4000 75° East 200 230 9,000  Level Winnipeg Center
08:20PM 50.4833 -106.3167 73° East 200 230 9,000  Level Winnipeg Center
08:21PM 50.5000 -106.2333 73° East 200 230 9,000  Level Winnipeg Center
08:22PM 50.5000 -106.1667 90° East 200 230 9,000 50 Level Winnipeg Center
08:23PM 50.5000 -106.0667 90° East 200 230 9,100 50 Climbing Winnipeg Center
08:24PM 50.5167 -105.9833 73° East 200 230 9,100  Level Winnipeg Center
08:25PM 50.5333 -105.9000 73° East 200 230 9,100  Level Winnipeg Center
08:26PM 50.5500 -105.8333 69° East 200 230 9,100  Level Winnipeg Center
08:27PM 50.5500 -105.7167 90° East 200 230 9,100  Level Winnipeg Center
08:28PM 50.5500 -105.6500 90° East 190 219 9,100  Level Winnipeg Center
08:29PM 50.5833 -105.5667 58° Northeast 190 219 9,100  Level Winnipeg Center
08:30PM 50.5833 -105.4833 90° East 190 219 9,100 -150 Level Winnipeg Center
08:31PM 50.5667 -105.4167 111° Southeast 190 219 8,800 -450 Descending Winnipeg Center
08:32PM 50.5667 -105.3000 90° East 200 230 8,200 -750 Descending Winnipeg Center
08:33PM 50.5500 -105.2167 107° East 200 230 7,300 -700 Descending Winnipeg Center
08:34PM 50.5500 -105.1333 90° East 200 230 6,800 -750 Descending Winnipeg Center
08:35PM 50.5333 -105.0667 111° Southeast 200 230 5,800 -800 Descending Winnipeg Center
08:36PM 50.5167 -104.9833 107° East 200 230 5,200 -350 Descending Winnipeg Center
08:37PM 50.5333 -104.9000 73° East 180 207 5,100 -300 Descending Winnipeg Center
08:38PM 50.5167 -104.8167 107° East 150 173 4,600 -650 Descending Winnipeg Center
08:39PM 50.4833 -104.7833 148° Southeast 130 150 3,800 -750 Descending Winnipeg Center
08:40PM 50.4667 -104.7500 128° Southeast 130 150 3,100 -750 Descending Winnipeg Center
08:41PM 50.4333 -104.7000 136° Southeast 130 150 2,300 -650 Descending Winnipeg Center
08:42PM 50.4167 -104.7000 180° South 90 104 1,800 -500 Descending Winnipeg Center

Login

Don't have an account? Register now (free) for customized features, flight alerts, and more!